createdAt,value
2019-04-14T00:02:01.114Z,13.13
2019-04-14T00:04:35.579Z,11.90
2019-04-14T00:07:05.844Z,13.77
2019-04-14T00:09:35.850Z,13.70
2019-04-14T00:12:07.564Z,14.30
2019-04-14T00:14:38.318Z,11.90
2019-04-14T00:17:10.725Z,15.77
2019-04-14T00:19:41.305Z,13.77
2019-04-14T00:22:11.715Z,11.50
2019-04-14T00:24:42.426Z,11.83
2019-04-14T00:27:12.843Z,13.43
2019-04-14T00:29:45.794Z,12.30
2019-04-14T00:32:22.709Z,11.53
2019-04-14T00:35:03.868Z,12.40
2019-04-14T00:37:40.972Z,13.07
2019-04-14T00:40:19.329Z,12.37
2019-04-14T00:43:22.075Z,11.80
2019-04-14T00:46:00.525Z,12.10
2019-04-14T00:48:30.146Z,11.88
2019-04-14T00:51:04.788Z,12.68
2019-04-14T00:53:36.103Z,13.23
2019-04-14T00:56:06.195Z,12.87
2019-04-14T00:58:36.793Z,12.23
2019-04-14T01:01:07.231Z,15.27
2019-04-14T01:03:37.339Z,12.58
2019-04-14T01:06:07.680Z,13.27
2019-04-14T01:08:40.223Z,11.73
2019-04-14T01:11:11.750Z,12.63
2019-04-14T01:13:42.033Z,16.25
2019-04-14T01:16:17.617Z,12.43
2019-04-14T01:18:45.170Z,13.13
2019-04-14T01:21:17.346Z,13.75
2019-04-14T01:23:48.652Z,11.85
2019-04-14T01:26:20.286Z,13.20
2019-04-14T01:28:54.795Z,12.43
2019-04-14T01:31:25.203Z,12.68
2019-04-14T01:33:55.535Z,12.40
2019-04-14T01:36:27.689Z,13.43
2019-04-14T01:38:58.148Z,11.40
2019-04-14T01:41:28.201Z,12.45
2019-04-14T01:43:58.240Z,12.37
2019-04-14T01:46:32.679Z,11.25
2019-04-14T01:49:03.192Z,13.40
2019-04-14T01:51:44.242Z,11.50
2019-04-14T01:54:36.417Z,14.33
2019-04-14T01:57:26.357Z,12.00
2019-04-14T01:59:56.755Z,12.70
2019-04-14T02:02:27.581Z,13.55
2019-04-14T02:04:59.631Z,12.53
2019-04-14T02:07:29.759Z,14.43
2019-04-14T02:09:59.597Z,13.00
2019-04-14T02:12:30.250Z,13.20
2019-04-14T02:15:00.433Z,11.93
2019-04-14T02:17:30.744Z,15.07
2019-04-14T02:20:01.229Z,13.20
2019-04-14T02:22:31.708Z,13.72
2019-04-14T02:25:03.630Z,12.33
2019-04-14T02:27:33.984Z,12.37
2019-04-14T02:30:04.745Z,14.43
2019-04-14T02:33:05.440Z,12.13
2019-04-14T02:35:37.191Z,13.10
2019-04-14T02:38:14.491Z,11.80
2019-04-14T02:43:12.818Z,13.70
2019-04-14T02:45:46.175Z,13.62
2019-04-14T02:48:27.530Z,12.70
2019-04-14T02:50:48.081Z,13.68
2019-04-14T02:55:59.452Z,13.00
2019-04-14T02:58:28.545Z,11.40
2019-04-14T03:00:58.422Z,11.68
2019-04-14T03:06:05.652Z,11.33
2019-04-14T03:16:15.615Z,10.80
2019-04-14T03:19:20.563Z,12.98
2019-04-14T03:22:28.977Z,10.48
2019-04-14T03:25:15.223Z,15.58
2019-04-14T03:28:14.383Z,11.70
2019-04-14T03:30:58.855Z,10.80
2019-04-14T03:36:20.941Z,13.13
2019-04-14T03:38:21.423Z,12.87
2019-04-14T03:40:50.717Z,13.30
2019-04-14T03:43:18.824Z,11.97
2019-04-14T03:45:55.135Z,10.77
2019-04-14T03:50:55.647Z,12.00
2019-04-14T03:53:37.665Z,11.97
2019-04-14T03:56:14.242Z,12.58
2019-04-14T03:58:45.004Z,13.03
2019-04-14T04:01:17.186Z,12.33
2019-04-14T04:03:50.335Z,11.17
2019-04-14T04:06:20.358Z,13.00
2019-04-14T04:08:50.949Z,12.95
2019-04-14T04:11:23.729Z,11.28
2019-04-14T04:13:56.422Z,11.50
2019-04-14T04:16:35.522Z,11.25
2019-04-14T04:19:15.536Z,13.23
2019-04-14T04:22:08.559Z,11.80
2019-04-14T04:24:55.024Z,10.10
2019-04-14T04:27:46.167Z,9.13
2019-04-14T04:30:36.811Z,11.77
2019-04-14T04:33:34.800Z,11.20
2019-04-14T04:36:11.818Z,10.43
2019-04-14T04:39:06.681Z,11.63
2019-04-14T04:41:36.461Z,10.17
2019-04-14T04:44:07.123Z,14.53
2019-04-14T04:46:37.350Z,12.53
2019-04-14T04:49:16.480Z,9.00
2019-04-14T04:51:42.194Z,9.27
2019-04-14T04:54:12.531Z,11.03
2019-04-14T04:56:44.789Z,11.43
2019-04-14T04:59:15.486Z,12.83
2019-04-14T05:01:45.203Z,13.77
2019-04-14T05:04:15.428Z,12.97
2019-04-14T05:07:03.361Z,11.53
2019-04-14T05:09:49.103Z,13.47
2019-04-14T05:12:36.990Z,10.03
2019-04-14T05:15:29.841Z,10.47
2019-04-14T05:18:00.434Z,11.00
2019-04-14T05:20:29.891Z,10.03
2019-04-14T05:22:59.410Z,12.18
2019-04-14T05:25:29.722Z,11.77
2019-04-14T05:28:00.373Z,11.23
2019-04-14T05:30:30.700Z,12.70
2019-04-14T05:33:00.982Z,10.50
2019-04-14T05:35:31.281Z,11.10
2019-04-14T05:38:02.359Z,13.03
2019-04-14T05:40:32.146Z,10.50
2019-04-14T05:43:02.502Z,17.17
2019-04-14T05:45:32.776Z,13.30
2019-04-14T05:48:03.266Z,13.07
2019-04-14T05:50:33.517Z,12.80
2019-04-14T05:53:04.354Z,11.00
2019-04-14T05:55:35.093Z,9.83
2019-04-14T05:58:06.485Z,11.37
2019-04-14T06:00:36.832Z,10.23
2019-04-14T06:03:06.304Z,10.73
2019-04-14T06:05:36.144Z,10.83
2019-04-14T06:08:05.975Z,11.70
2019-04-14T06:10:35.576Z,9.23
2019-04-14T06:13:04.966Z,9.87
2019-04-14T06:15:35.088Z,10.70
2019-04-14T06:18:04.469Z,11.13
2019-04-14T06:20:34.341Z,10.47
2019-04-14T06:23:03.875Z,12.03
2019-04-14T06:25:36.202Z,9.10
2019-04-14T06:28:04.465Z,9.77
2019-04-14T06:30:52.666Z,10.70
2019-04-14T06:33:37.878Z,15.50
2019-04-14T06:36:29.000Z,12.60
2019-04-14T06:39:07.682Z,18.50
2019-04-14T06:41:37.066Z,12.43
2019-04-14T06:44:06.482Z,10.87
2019-04-14T06:46:35.893Z,11.17
2019-04-14T06:49:05.395Z,9.50
2019-04-14T06:51:34.856Z,9.20
2019-04-14T06:54:04.226Z,8.80
2019-04-14T06:56:33.624Z,9.83
2019-04-14T06:59:03.045Z,9.07
2019-04-14T07:01:32.423Z,10.80
2019-04-14T07:04:01.808Z,10.13
2019-04-14T07:06:31.596Z,8.83
2019-04-14T07:09:00.957Z,7.83
2019-04-14T07:11:30.365Z,11.43
2019-04-14T07:13:59.956Z,9.53
2019-04-14T07:16:29.410Z,10.38
2019-04-14T07:18:58.785Z,10.90
2019-04-14T07:21:28.355Z,9.15
2019-04-14T07:23:58.933Z,8.47
2019-04-14T07:26:28.376Z,10.85
2019-04-14T07:28:58.200Z,8.87
2019-04-14T07:31:40.650Z,9.87
2019-04-14T07:34:29.693Z,8.60
2019-04-14T07:37:09.377Z,8.58
2019-04-14T07:39:47.704Z,10.50
2019-04-14T07:42:35.968Z,8.25
2019-04-14T07:45:29.301Z,9.00
2019-04-14T07:48:04.740Z,8.67
2019-04-14T07:50:54.934Z,9.77
2019-04-14T07:53:42.887Z,8.53
2019-04-14T07:56:38.207Z,9.30
2019-04-14T07:59:13.844Z,9.13
2019-04-14T08:02:08.734Z,13.77
2019-04-14T08:04:42.340Z,15.17
2019-04-14T08:07:12.626Z,9.90
2019-04-14T08:09:42.678Z,11.50
2019-04-14T08:12:12.438Z,9.70
2019-04-14T08:14:42.468Z,10.25
2019-04-14T08:17:14.461Z,12.17
2019-04-14T08:19:44.004Z,11.77
2019-04-14T08:22:13.656Z,11.57
2019-04-14T08:24:44.331Z,8.77
2019-04-14T08:27:13.836Z,10.47
2019-04-14T08:29:43.261Z,11.23
2019-04-14T08:32:12.767Z,10.23
2019-04-14T08:34:42.832Z,10.40
2019-04-14T08:37:12.766Z,7.37
2019-04-14T08:39:44.582Z,9.25
2019-04-14T08:42:49.796Z,9.40
2019-04-14T08:45:38.386Z,8.15
2019-04-14T08:48:16.083Z,9.60
2019-04-14T08:51:01.568Z,8.97
2019-04-14T08:53:45.475Z,10.63
2019-04-14T08:56:29.137Z,10.20
2019-04-14T08:59:07.794Z,11.85
2019-04-14T09:01:53.765Z,9.50
2019-04-14T09:04:48.474Z,11.25
2019-04-14T09:07:28.100Z,11.05
2019-04-14T09:10:01.702Z,9.48
2019-04-14T09:12:34.254Z,12.17
2019-04-14T09:15:04.143Z,12.03
2019-04-14T09:17:33.547Z,13.57
2019-04-14T09:20:03.178Z,12.37
2019-04-14T09:22:32.946Z,10.37
2019-04-14T09:25:02.738Z,8.60
2019-04-14T09:27:32.109Z,14.77
2019-04-14T09:30:01.551Z,9.70
2019-04-14T09:32:31.337Z,11.77
2019-04-14T09:35:00.720Z,11.90
2019-04-14T09:37:30.718Z,8.63
2019-04-14T09:40:00.314Z,12.70
2019-04-14T09:42:33.176Z,8.77
2019-04-14T09:45:02.717Z,8.10
2019-04-14T09:47:32.326Z,10.97
2019-04-14T09:50:01.769Z,7.80
2019-04-14T09:52:31.386Z,8.57
2019-04-14T09:55:00.891Z,8.63
2019-04-14T09:57:31.725Z,7.77
2019-04-14T10:00:01.169Z,9.70
2019-04-14T10:02:30.574Z,9.60
2019-04-14T10:05:01.988Z,9.95
2019-04-14T10:07:31.444Z,9.00
2019-04-14T10:10:00.938Z,9.80
2019-04-14T10:12:30.352Z,9.15
2019-04-14T10:15:00.139Z,12.00
2019-04-14T10:17:30.575Z,12.07
2019-04-14T10:20:00.058Z,11.35
2019-04-14T10:22:34.326Z,8.93
2019-04-14T10:25:01.591Z,12.68
2019-04-14T10:27:30.953Z,10.07
2019-04-14T10:30:00.510Z,12.40
2019-04-14T10:32:31.351Z,11.60
2019-04-14T10:35:05.907Z,13.33
2019-04-14T10:37:36.969Z,12.23
2019-04-14T10:40:08.086Z,12.33
2019-04-14T10:42:37.756Z,12.60
2019-04-14T10:45:08.288Z,13.07
2019-04-14T10:47:37.930Z,10.08
2019-04-14T10:50:07.576Z,9.33
2019-04-14T10:52:37.013Z,9.73
2019-04-14T10:55:07.858Z,13.20
2019-04-14T10:57:37.314Z,11.87
2019-04-14T11:00:12.644Z,10.18
2019-04-14T11:02:42.865Z,10.70
2019-04-14T11:05:13.002Z,11.50
2019-04-14T11:07:42.933Z,10.60
2019-04-14T11:10:13.196Z,10.38
2019-04-14T11:12:42.788Z,12.27
2019-04-14T11:15:15.482Z,11.10
2019-04-14T11:17:44.736Z,10.20
2019-04-14T11:20:14.197Z,11.17
2019-04-14T11:22:43.630Z,9.80
2019-04-14T11:25:13.017Z,8.90
2019-04-14T11:27:42.770Z,9.53
2019-04-14T11:30:19.061Z,9.77
2019-04-14T11:32:56.385Z,9.67
2019-04-14T11:35:39.119Z,11.53
2019-04-14T11:38:33.444Z,10.60
2019-04-14T11:41:04.890Z,8.87
2019-04-14T11:43:34.391Z,12.57
2019-04-14T11:46:04.367Z,11.20
2019-04-14T11:48:33.926Z,10.28
2019-04-14T11:51:03.305Z,9.53
2019-04-14T11:53:32.694Z,8.23
2019-04-14T11:56:03.048Z,8.83
2019-04-14T11:58:32.458Z,9.27
2019-04-14T12:01:39.881Z,12.30
2019-04-14T12:04:19.370Z,9.47
2019-04-14T12:07:06.161Z,10.17
2019-04-14T12:09:38.899Z,10.17
2019-04-14T12:12:10.637Z,9.67
2019-04-14T12:14:41.357Z,9.67
2019-04-14T12:17:14.251Z,7.83
2019-04-14T12:19:43.620Z,10.27
2019-04-14T12:22:13.366Z,11.23
2019-04-14T12:24:45.668Z,12.28
2019-04-14T12:27:15.044Z,9.90
2019-04-14T12:29:45.692Z,9.47
2019-04-14T12:32:15.394Z,9.57
2019-04-14T12:34:44.975Z,9.50
2019-04-14T12:37:14.709Z,9.50
2019-04-14T12:40:02.757Z,9.30
2019-04-14T12:42:38.905Z,9.00
2019-04-14T12:45:37.923Z,9.93
2019-04-14T12:48:22.340Z,9.43
2019-04-14T12:51:07.597Z,9.37
2019-04-14T12:53:40.237Z,12.67
2019-04-14T12:56:09.560Z,10.10
2019-04-14T12:58:58.025Z,11.37
2019-04-14T13:01:32.148Z,13.50
2019-04-14T13:04:02.679Z,9.30
2019-04-14T13:06:33.674Z,12.30
2019-04-14T13:09:03.602Z,9.60
2019-04-14T13:11:36.193Z,11.87
2019-04-14T13:14:05.839Z,10.60
2019-04-14T13:16:35.224Z,11.43
2019-04-14T13:19:05.970Z,12.20
2019-04-14T13:21:40.466Z,13.83
2019-04-14T13:24:10.126Z,9.67
2019-04-14T13:26:42.223Z,12.97
2019-04-14T13:29:11.894Z,10.77
2019-04-14T13:31:41.261Z,10.07
2019-04-14T13:34:10.684Z,13.83
2019-04-14T13:36:45.143Z,10.33
2019-04-14T13:39:14.509Z,10.73
2019-04-14T13:41:43.979Z,11.53
2019-04-14T13:44:13.870Z,12.00
2019-04-14T13:46:46.228Z,9.90
2019-04-14T13:49:15.621Z,11.20
2019-04-14T13:51:46.931Z,10.83
2019-04-14T13:54:18.897Z,12.63
2019-04-14T13:56:54.254Z,12.05
2019-04-14T13:59:26.973Z,12.82
2019-04-14T14:01:56.350Z,15.20
2019-04-14T14:04:28.762Z,12.88
2019-04-14T14:06:58.167Z,12.82
2019-04-14T14:09:41.870Z,9.70
2019-04-14T14:12:39.667Z,11.60
2019-04-14T14:15:36.926Z,11.43
2019-04-14T14:18:40.463Z,11.40
2019-04-14T14:21:33.023Z,14.93
2019-04-14T14:24:33.192Z,18.90
2019-04-14T14:27:14.384Z,13.77
2019-04-14T14:29:43.788Z,12.20
2019-04-14T14:32:40.714Z,11.87
2019-04-14T14:35:10.298Z,12.30
2019-04-14T14:37:39.680Z,13.70
2019-04-14T14:40:10.496Z,16.57
2019-04-14T14:42:44.361Z,11.57
2019-04-14T14:45:40.121Z,13.73
2019-04-14T14:48:19.846Z,11.87
2019-04-14T14:50:54.787Z,13.40
2019-04-14T14:53:24.272Z,12.37
2019-04-14T14:55:55.461Z,12.67
2019-04-14T14:58:28.329Z,13.17
2019-04-14T15:00:59.178Z,11.80
2019-04-14T15:03:30.520Z,11.18
2019-04-14T15:06:00.063Z,13.50
2019-04-14T15:08:29.518Z,10.67
2019-04-14T15:10:58.930Z,14.27
2019-04-14T15:13:28.618Z,12.13
2019-04-14T15:15:59.907Z,14.00
2019-04-14T15:18:29.298Z,10.72
2019-04-14T15:20:58.734Z,11.37
2019-04-14T15:23:28.133Z,12.82
2019-04-14T15:25:57.511Z,14.57
2019-04-14T15:28:26.973Z,13.30
2019-04-14T15:30:56.381Z,15.80
2019-04-14T15:33:26.786Z,14.87
2019-04-14T15:35:56.543Z,11.08
2019-04-14T15:38:25.918Z,11.88
2019-04-14T15:40:55.506Z,14.97
2019-04-14T15:43:24.995Z,13.15
2019-04-14T15:45:54.372Z,10.88
2019-04-14T15:48:23.774Z,9.90
2019-04-14T15:50:53.320Z,10.83
2019-04-14T15:53:22.727Z,13.13
2019-04-14T15:55:52.141Z,11.00
2019-04-14T15:58:48.367Z,11.37
2019-04-14T16:01:51.999Z,10.43
2019-04-14T16:04:52.540Z,9.67
2019-04-14T16:07:30.945Z,10.23
2019-04-14T16:10:22.386Z,11.97
2019-04-14T16:13:09.355Z,12.47
2019-04-14T16:16:01.313Z,11.47
2019-04-14T16:18:48.282Z,12.00
2019-04-14T16:21:17.766Z,10.27
2019-04-14T16:23:50.601Z,9.77
2019-04-14T16:26:23.340Z,11.47
2019-04-14T16:29:02.645Z,10.98
2019-04-14T16:31:47.267Z,16.80
2019-04-14T16:34:38.944Z,9.73
2019-04-14T16:37:10.132Z,11.17
2019-04-14T16:39:39.534Z,17.97
2019-04-14T16:42:09.009Z,12.30
2019-04-14T16:44:38.558Z,7.37
2019-04-14T16:47:09.467Z,11.50
2019-04-14T16:49:40.144Z,10.70
2019-04-14T16:52:32.445Z,9.77
2019-04-14T16:55:33.393Z,10.97
2019-04-14T16:58:25.242Z,15.90
2019-04-14T17:01:00.111Z,10.30
2019-04-14T17:03:32.121Z,8.98
2019-04-14T17:06:03.347Z,9.73
2019-04-14T17:08:33.082Z,9.27
2019-04-14T17:11:04.994Z,10.17
2019-04-14T17:13:37.135Z,10.57
2019-04-14T17:16:23.676Z,11.13
2019-04-14T17:19:16.288Z,11.43
2019-04-14T17:21:55.405Z,13.03
2019-04-14T17:24:49.557Z,9.40
2019-04-14T17:27:45.855Z,11.15
2019-04-14T17:30:24.695Z,7.85
2019-04-14T17:33:12.093Z,11.08
2019-04-14T17:35:49.868Z,9.20
2019-04-14T17:38:41.120Z,10.35
2019-04-14T17:41:29.389Z,8.80
2019-04-14T17:44:03.833Z,13.50
2019-04-14T17:46:50.829Z,9.03
2019-04-14T17:49:42.048Z,8.43
2019-04-14T17:52:45.744Z,13.13
2019-04-14T17:55:33.061Z,10.80
2019-04-14T17:58:08.908Z,11.87
2019-04-14T18:01:06.986Z,9.53
2019-04-14T18:04:07.456Z,9.30
2019-04-14T18:06:47.294Z,13.00
2019-04-14T18:09:39.685Z,14.00
2019-04-14T18:12:26.567Z,11.17
2019-04-14T18:15:06.607Z,10.15
2019-04-14T18:18:12.046Z,14.13
2019-04-14T18:20:44.445Z,13.30
2019-04-14T18:23:13.809Z,9.23
2019-04-14T18:25:43.691Z,12.98
2019-04-14T18:28:35.530Z,10.23
2019-04-14T18:31:19.995Z,11.87
2019-04-14T18:34:12.304Z,12.13
2019-04-14T18:37:00.293Z,10.57
2019-04-14T18:39:54.683Z,15.40
2019-04-14T18:42:43.101Z,10.67
2019-04-14T18:45:47.872Z,9.70
2019-04-14T18:48:40.132Z,10.10
2019-04-14T18:51:31.469Z,13.17
2019-04-14T18:57:18.928Z,10.17
2019-04-14T19:00:01.334Z,9.58
2019-04-14T19:02:30.824Z,12.40
2019-04-14T19:05:00.175Z,10.40
2019-04-14T19:07:32.778Z,8.87
2019-04-14T19:10:05.111Z,11.03
2019-04-14T19:12:40.696Z,10.87
2019-04-14T19:15:21.908Z,9.57
2019-04-14T19:17:58.244Z,11.93
2019-04-14T19:20:27.748Z,10.77
2019-04-14T19:22:58.234Z,9.17
2019-04-14T19:25:28.905Z,10.40
2019-04-14T19:28:00.092Z,10.40
2019-04-14T19:30:29.653Z,11.13
2019-04-14T19:32:59.097Z,11.30
2019-04-14T19:35:28.614Z,12.53
2019-04-14T19:37:58.115Z,10.60
2019-04-14T19:40:29.705Z,10.27
2019-04-14T19:43:00.544Z,8.50
2019-04-14T19:45:31.415Z,9.47
2019-04-14T19:48:00.956Z,8.50
2019-04-14T19:50:32.267Z,9.13
2019-04-14T19:53:01.770Z,8.33
2019-04-14T19:55:32.685Z,9.90
2019-04-14T19:58:02.211Z,13.90
2019-04-14T20:00:33.489Z,8.00
2019-04-14T20:03:04.212Z,9.98
2019-04-14T20:05:33.670Z,10.90
2019-04-14T20:08:04.565Z,8.83
2019-04-14T20:10:34.148Z,9.10
2019-04-14T20:13:04.708Z,9.93
2019-04-14T20:15:39.750Z,11.80
2019-04-14T20:18:14.784Z,9.53
2019-04-14T20:21:00.276Z,9.70
2019-04-14T20:23:40.400Z,9.28
2019-04-14T20:26:25.746Z,7.70
2019-04-14T20:29:03.208Z,9.73
2019-04-14T20:31:40.432Z,10.20
2019-04-14T20:34:11.180Z,9.43
2019-04-14T20:36:43.311Z,8.03
2019-04-14T20:39:15.813Z,8.27
2019-04-14T20:41:45.353Z,7.73
2019-04-14T20:44:15.465Z,7.67
2019-04-14T20:46:45.497Z,7.00
2019-04-14T20:49:15.206Z,6.80
2019-04-14T20:51:45.289Z,8.53
2019-04-14T20:54:15.244Z,8.70
2019-04-14T20:56:46.589Z,8.57
2019-04-14T20:59:18.037Z,7.00
2019-04-14T21:01:58.956Z,7.07
2019-04-14T21:04:36.506Z,7.97
2019-04-14T21:07:30.901Z,4.87
2019-04-14T21:10:08.502Z,9.23
2019-04-14T21:12:53.440Z,5.53
2019-04-14T21:15:34.032Z,4.73
2019-04-14T21:18:16.083Z,6.37
2019-04-14T21:21:10.110Z,5.53
2019-04-14T21:24:12.543Z,5.23
2019-04-14T21:26:49.395Z,6.50
2019-04-14T21:29:40.632Z,5.53
2019-04-14T21:32:20.739Z,4.67
2019-04-14T21:35:11.942Z,4.30
2019-04-14T21:37:57.894Z,5.47
2019-04-14T21:40:41.564Z,5.40
2019-04-14T21:43:11.349Z,4.77
2019-04-14T21:45:40.691Z,4.47
2019-04-14T21:48:10.077Z,4.53
2019-04-14T21:50:39.813Z,4.93
2019-04-14T21:53:09.215Z,5.50
2019-04-14T21:55:38.654Z,7.17
2019-04-14T21:58:32.970Z,7.20
2019-04-14T22:01:50.199Z,5.17
2019-04-14T22:04:38.395Z,10.77
2019-04-14T22:07:20.723Z,4.73
2019-04-14T22:09:50.613Z,4.17
2019-04-14T22:12:20.512Z,7.63
2019-04-14T22:14:49.921Z,7.73
2019-04-14T22:17:19.400Z,6.23
2019-04-14T22:19:48.845Z,5.13
2019-04-14T22:22:20.345Z,9.35
2019-04-14T22:24:49.743Z,6.63
2019-04-14T22:27:19.325Z,5.17
2019-04-14T22:29:48.712Z,5.43
2019-04-14T22:32:21.035Z,4.97
2019-04-14T22:34:50.852Z,5.37
2019-04-14T22:37:20.266Z,4.70
2019-04-14T22:39:49.679Z,7.33
2019-04-14T22:42:19.186Z,5.83
2019-04-14T22:44:48.583Z,6.73
2019-04-14T22:47:18.013Z,5.60
2019-04-14T22:49:47.523Z,5.37
2019-04-14T22:52:16.949Z,4.27
2019-04-14T22:54:46.339Z,6.00
2019-04-14T22:57:16.248Z,6.77
2019-04-14T22:59:45.662Z,7.27
2019-04-14T23:02:35.708Z,7.30
2019-04-14T23:05:23.165Z,7.80
2019-04-14T23:08:19.150Z,5.30
2019-04-14T23:11:12.384Z,8.87
2019-04-14T23:13:49.682Z,5.07
2019-04-14T23:16:32.653Z,4.53
2019-04-14T23:19:07.491Z,6.60
2019-04-14T23:21:41.414Z,4.77
2019-04-14T23:24:20.040Z,6.47
2019-04-14T23:26:52.811Z,7.37
2019-04-14T23:29:22.546Z,6.62
2019-04-14T23:31:52.052Z,4.35
2019-04-14T23:34:24.030Z,5.80
2019-04-14T23:36:53.427Z,5.30
2019-04-14T23:39:24.107Z,5.07
2019-04-14T23:41:53.777Z,5.23
2019-04-14T23:44:23.166Z,4.65
2019-04-14T23:46:52.588Z,6.25
2019-04-14T23:49:22.142Z,6.57
2019-04-14T23:51:51.531Z,4.72
2019-04-14T23:54:21.017Z,5.13
2019-04-14T23:57:04.758Z,8.63
2019-04-14T23:59:25.022Z,5.65
